Saint Bonnet de Bellac- Haute Vienne - France
Donnes mto: vendredi, 05/10/2012
Date Horaire Temp. E. Hum. E. P.atmo. Pluie Vent Direction Direction Ensoleilleme Solaire P. de rose Temp au vent Rafales
05/10/2012 00:00 12,2 C 93 % 1016,9 hPa 0,0 mm 1,1 km/h (1 Bft) S 180 0 min 0 W/m 11,1 C 12,2 C 4,3 km/h (1 Bft)
05/10/2012 00:10 12,4 C 93 % 1016,9 hPa 0,0 mm 0,4 km/h (0 Bft) S-SO 202 0 min 0 W/m 11,3 C 12,4 C 3,2 km/h (1 Bft)
05/10/2012 00:20 12,6 C 93 % 1016,8 hPa 0,0 mm 0,0 km/h (0 Bft) S 180 0 min 0 W/m 11,5 C 12,6 C 0,0 km/h (0 Bft)
05/10/2012 00:30 12,6 C 93 % 1016,7 hPa 0,0 mm 0,0 km/h (0 Bft) S 180 0 min 0 W/m 11,5 C 12,6 C 3,2 km/h (1 Bft)
05/10/2012 00:40 12,5 C 93 % 1016,8 hPa 0,0 mm 0,0 km/h (0 Bft) S-SO 202 0 min 0 W/m 11,4 C 12,5 C 0,0 km/h (0 Bft)
05/10/2012 00:50 12,4 C 93 % 1016,7 hPa 0,0 mm 0,0 km/h (0 Bft) S-SO 202 0 min 0 W/m 11,3 C 12,4 C 3,2 km/h (1 Bft)
05/10/2012 01:00 12,3 C 93 % 1016,7 hPa 0,0 mm 0,0 km/h (0 Bft) S-SO 202 0 min 0 W/m 11,2 C 12,3 C 0,0 km/h (0 Bft)
05/10/2012 01:10 12,3 C 93 % 1016,8 hPa 0,0 mm 0,0 km/h (0 Bft) S-SO 202 0 min 0 W/m 11,2 C 12,3 C 0,0 km/h (0 Bft)
05/10/2012 01:20 12,3 C 93 % 1016,7 hPa 0,0 mm 0,0 km/h (0 Bft) S-SO 202 0 min 0 W/m 11,2 C 12,3 C 0,0 km/h (0 Bft)
05/10/2012 01:30 12,2 C 93 % 1016,7 hPa 0,0 mm 0,0 km/h (0 Bft) S-SO 202 0 min 0 W/m 11,1 C 12,2 C 0,0 km/h (0 Bft)
05/10/2012 01:40 12,1 C 93 % 1016,6 hPa 0,0 mm 0,0 km/h (0 Bft) S-SO 202 0 min 0 W/m 11,0 C 12,1 C 0,0 km/h (0 Bft)
05/10/2012 01:50 12,2 C 94 % 1016,6 hPa 0,0 mm 0,0 km/h (0 Bft) S 180 0 min 0 W/m 11,3 C 12,2 C 0,0 km/h (0 Bft)
05/10/2012 02:00 12,1 C 93 % 1016,7 hPa 0,0 mm 0,0 km/h (0 Bft) S 180 0 min 0 W/m 11,0 C 12,1 C 0,0 km/h (0 Bft)
05/10/2012 02:10 12,0 C 94 % 1016,6 hPa 0,0 mm 0,0 km/h (0 Bft) S 180 0 min 0 W/m 11,1 C 12,0 C 0,0 km/h (0 Bft)
05/10/2012 02:20 11,9 C 94 % 1016,6 hPa 0,0 mm 0,0 km/h (0 Bft) S 180 0 min 0 W/m 11,0 C 11,9 C 0,0 km/h (0 Bft)
05/10/2012 02:30 11,8 C 93 % 1016,6 hPa 0,0 mm 0,0 km/h (0 Bft) S 180 0 min 0 W/m 10,7 C 11,8 C 0,0 km/h (0 Bft)
05/10/2012 02:40 11,7 C 93 % 1016,6 hPa 0,0 mm 0,0 km/h (0 Bft) S 180 0 min 0 W/m 10,6 C 11,7 C 0,0 km/h (0 Bft)
05/10/2012 02:50 11,6 C 93 % 1016,4 hPa 0,0 mm 0,0 km/h (0 Bft) S 180 0 min 0 W/m 10,5 C 11,6 C 0,0 km/h (0 Bft)
05/10/2012 03:02 11,5 C 93 % 1016,4 hPa 0,0 mm 0,0 km/h (0 Bft) S 180 0 min 0 W/m 10,4 C 11,5 C 0,0 km/h (0 Bft)
05/10/2012 03:10 11,6 C 93 % 1016,3 hPa 0,0 mm 0,0 km/h (0 Bft) S 180 0 min 0 W/m 10,5 C 11,6 C 0,0 km/h (0 Bft)
05/10/2012 03:20 11,6 C 93 % 1016,1 hPa 0,0 mm 0,4 km/h (0 Bft) S 180 0 min 0 W/m 10,5 C 11,6 C 0,4 km/h (0 Bft)
05/10/2012 03:30 11,7 C 93 % 1016,1 hPa 0,0 mm 0,7 km/h (0 Bft) S 180 0 min 0 W/m 10,6 C 11,7 C 0,7 km/h (0 Bft)
05/10/2012 03:40 11,8 C 93 % 1016,0 hPa 0,0 mm 0,0 km/h (0 Bft) S-SO 202 0 min 0 W/m 10,7 C 11,8 C 0,0 km/h (0 Bft)
05/10/2012 03:50 11,8 C 93 % 1015,9 hPa 0,0 mm 0,0 km/h (0 Bft) S 180 0 min 0 W/m 10,7 C 11,8 C 0,0 km/h (0 Bft)
05/10/2012 04:00 11,8 C 93 % 1015,9 hPa 0,0 mm 0,4 km/h (0 Bft) S-SO 202 0 min 0 W/m 10,7 C 11,8 C 3,6 km/h (1 Bft)
05/10/2012 04:10 11,8 C 93 % 1015,9 hPa 0,1 mm 0,0 km/h (0 Bft) S-SE 157 0 min 0 W/m 10,7 C 11,8 C 0,0 km/h (0 Bft)
05/10/2012 04:20 11,8 C 93 % 1015,9 hPa 0,0 mm 0,0 km/h (0 Bft) S 180 0 min 0 W/m 10,7 C 11,8 C 0,0 km/h (0 Bft)
05/10/2012 04:30 11,7 C 93 % 1015,9 hPa 0,0 mm 0,0 km/h (0 Bft) S 180 0 min 0 W/m 10,6 C 11,7 C 0,0 km/h (0 Bft)
05/10/2012 04:40 11,4 C 93 % 1015,8 hPa 0,0 mm 0,0 km/h (0 Bft) S 180 0 min 0 W/m 10,3 C 11,4 C 0,0 km/h (0 Bft)
05/10/2012 04:50 11,4 C 93 % 1015,8 hPa 0,0 mm 0,0 km/h (0 Bft) S-SO 202 0 min 0 W/m 10,3 C 11,4 C 0,0 km/h (0 Bft)
05/10/2012 05:00 11,4 C 93 % 1015,8 hPa 0,0 mm 0,0 km/h (0 Bft) S-SE 157 0 min 0 W/m 10,3 C 11,4 C 0,0 km/h (0 Bft)
05/10/2012 05:10 11,3 C 93 % 1015,9 hPa 0,0 mm 0,0 km/h (0 Bft) S-SE 157 0 min 0 W/m 10,2 C 11,3 C 0,0 km/h (0 Bft)
05/10/2012 05:20 11,1 C 93 % 1015,8 hPa 0,0 mm 0,0 km/h (0 Bft) S-SE 157 0 min 0 W/m 10,0 C 11,1 C 0,0 km/h (0 Bft)
05/10/2012 05:30 11,1 C 93 % 1015,9 hPa 0,0 mm 0,0 km/h (0 Bft) S-SE 157 0 min 0 W/m 10,0 C 11,1 C 0,0 km/h (0 Bft)
05/10/2012 05:40 10,9 C 93 % 1015,9 hPa 0,0 mm 0,0 km/h (0 Bft) S-SE 157 0 min 0 W/m 9,8 C 10,9 C 0,0 km/h (0 Bft)
05/10/2012 05:50 11,1 C 94 % 1015,9 hPa 0,0 mm 0,0 km/h (0 Bft) S-SE 157 0 min 0 W/m 10,2 C 11,1 C 0,0 km/h (0 Bft)
05/10/2012 06:00 11,3 C 94 % 1016,0 hPa 0,0 mm 0,4 km/h (0 Bft) S-SO 202 0 min 0 W/m 10,4 C 11,3 C 2,9 km/h (1 Bft)
05/10/2012 06:10 11,4 C 94 % 1016,1 hPa 0,0 mm 0,7 km/h (0 Bft) S 180 0 min 0 W/m 10,5 C 11,4 C 2,9 km/h (1 Bft)
05/10/2012 06:20 11,6 C 94 % 1015,9 hPa 0,0 mm 0,4 km/h (0 Bft) S-SO 202 0 min 0 W/m 10,7 C 11,6 C 3,6 km/h (1 Bft)
05/10/2012 06:30 11,8 C 94 % 1016,0 hPa 0,0 mm 0,0 km/h (0 Bft) SO 225 0 min 0 W/m 10,9 C 11,8 C 0,0 km/h (0 Bft)
05/10/2012 06:40 11,8 C 94 % 1016,1 hPa 0,0 mm 0,4 km/h (0 Bft) S-SO 202 0 min 0 W/m 10,9 C 11,8 C 0,4 km/h (0 Bft)
05/10/2012 06:50 12,0 C 94 % 1016,1 hPa 0,0 mm 1,8 km/h (1 Bft) S-SO 202 0 min 0 W/m 11,1 C 12,0 C 4,0 km/h (1 Bft)
05/10/2012 07:00 12,3 C 95 % 1016,0 hPa 0,0 mm 5,0 km/h (1 Bft) S-SO 202 0 min 0 W/m 11,5 C 12,3 C 6,8 km/h (2 Bft)
05/10/2012 07:10 12,5 C 94 % 1016,1 hPa 0,0 mm 4,3 km/h (1 Bft) S-SO 202 0 min 0 W/m 11,6 C 12,5 C 4,3 km/h (1 Bft)
05/10/2012 07:20 12,6 C 94 % 1016,0 hPa 0,0 mm 5,4 km/h (2 Bft) S-SO 202 0 min 0 W/m 11,7 C 12,6 C 5,4 km/h (2 Bft)
05/10/2012 07:30 12,8 C 93 % 1016,0 hPa 0,0 mm 5,0 km/h (1 Bft) SO 225 0 min 0 W/m 11,7 C 12,8 C 8,3 km/h (2 Bft)
05/10/2012 07:40 12,9 C 92 % 1016,0 hPa 0,0 mm 2,5 km/h (1 Bft) SO 225 0 min 0 W/m 11,6 C 12,9 C 5,8 km/h (2 Bft)
05/10/2012 07:50 12,9 C 92 % 1016,0 hPa 0,0 mm 3,2 km/h (1 Bft) S-SO 202 0 min 0 W/m 11,6 C 12,9 C 12,2 km/h (2 Bft)
05/10/2012 08:00 13,0 C 91 % 1016,1 hPa 0,0 mm 2,5 km/h (1 Bft) S-SO 202 0 min 0 W/m 11,6 C 13,0 C 2,9 km/h (1 Bft)
05/10/2012 08:10 13,1 C 91 % 1016,1 hPa 0,0 mm 2,9 km/h (1 Bft) S-SO 202 0 min 0 W/m 11,7 C 13,1 C 4,3 km/h (1 Bft)
05/10/2012 08:20 13,0 C 90 % 1016,1 hPa 0,0 mm 3,6 km/h (1 Bft) SO 225 0 min 0 W/m 11,4 C 13,0 C 7,2 km/h (2 Bft)
05/10/2012 08:30 13,1 C 90 % 1016,3 hPa 0,0 mm 5,4 km/h (2 Bft) S-SO 202 0 min 0 W/m 11,5 C 13,1 C 9,0 km/h (2 Bft)
05/10/2012 08:40 13,2 C 90 % 1016,3 hPa 0,0 mm 1,1 km/h (1 Bft) S-SO 202 0 min 0 W/m 11,6 C 13,2 C 4,0 km/h (1 Bft)
05/10/2012 08:50 13,3 C 90 % 1016,4 hPa 0,0 mm 3,6 km/h (1 Bft) S-SO 202 0 min 0 W/m 11,7 C 13,3 C 7,9 km/h (2 Bft)
05/10/2012 09:00 13,5 C 90 % 1016,4 hPa 0,0 mm 4,0 km/h (1 Bft) S-SO 202 0 min 0 W/m 11,9 C 13,5 C 6,1 km/h (2 Bft)
05/10/2012 09:10 14,2 C 88 % 1016,5 hPa 0,0 mm 2,2 km/h (1 Bft) S-SO 202 0 min 0 W/m 12,2 C 14,2 C 4,3 km/h (1 Bft)
05/10/2012 09:20 15,1 C 87 % 1016,6 hPa 0,0 mm 1,1 km/h (1 Bft) S-SO 202 0 min 0 W/m 13,0 C 15,1 C 3,6 km/h (1 Bft)
05/10/2012 09:30 15,8 C 85 % 1016,7 hPa 0,0 mm 1,4 km/h (1 Bft) SO 225 0 min 0 W/m 13,3 C 15,8 C 4,0 km/h (1 Bft)
05/10/2012 09:40 16,5 C 83 % 1016,8 hPa 0,0 mm 1,4 km/h (1 Bft) SO 225 0 min 0 W/m 13,6 C 16,5 C 6,1 km/h (2 Bft)
05/10/2012 09:50 17,1 C 81 % 1017,0 hPa 0,0 mm 3,6 km/h (1 Bft) SO 225 0 min 0 W/m 13,8 C 17,1 C 6,8 km/h (2 Bft)
05/10/2012 10:00 17,6 C 79 % 1017,1 hPa 0,0 mm 6,1 km/h (2 Bft) S 180 0 min 0 W/m 13,9 C 17,6 C 8,6 km/h (2 Bft)
05/10/2012 10:10 18,1 C 78 % 1017,3 hPa 0,0 mm 4,7 km/h (1 Bft) S 180 0 min 0 W/m 14,2 C 18,1 C 7,9 km/h (2 Bft)
05/10/2012 10:20 18,6 C 77 % 1017,3 hPa 0,0 mm 5,8 km/h (2 Bft) S-SO 202 0 min 0 W/m 14,5 C 18,6 C 8,6 km/h (2 Bft)
05/10/2012 10:30 18,9 C 75 % 1017,3 hPa 0,0 mm 5,4 km/h (2 Bft) S 180 0 min 0 W/m 14,4 C 18,9 C 6,5 km/h (2 Bft)
05/10/2012 10:40 19,3 C 74 % 1017,4 hPa 0,0 mm 6,1 km/h (2 Bft) S-SO 202 0 min 0 W/m 14,5 C 19,3 C 6,1 km/h (2 Bft)
05/10/2012 10:50 19,7 C 72 % 1017,5 hPa 0,0 mm 10,8 km/h (2 Bft) S-SO 202 0 min 0 W/m 14,5 C 19,7 C 15,1 km/h (3 Bft)
05/10/2012 11:00 19,9 C 71 % 1017,5 hPa 0,0 mm 5,4 km/h (2 Bft) SO 225 0 min 0 W/m 14,5 C 19,9 C 9,4 km/h (2 Bft)
05/10/2012 11:10 20,2 C 71 % 1017,6 hPa 0,0 mm 8,3 km/h (2 Bft) SO 225 0 min 0 W/m 14,8 C 20,2 C 14,0 km/h (3 Bft)
05/10/2012 11:20 20,4 C 69 % 1017,6 hPa 0,0 mm 6,8 km/h (2 Bft) SO 225 0 min 0 W/m 14,5 C 20,4 C 9,4 km/h (2 Bft)
05/10/2012 11:30 20,9 C 68 % 1017,6 hPa 0,0 mm 5,4 km/h (2 Bft) SO 225 0 min 0 W/m 14,8 C 20,9 C 5,4 km/h (2 Bft)
05/10/2012 11:40 21,2 C 68 % 1017,6 hPa 0,0 mm 4,7 km/h (1 Bft) SO 225 0 min 0 W/m 15,1 C 21,2 C 9,0 km/h (2 Bft)
05/10/2012 11:50 21,5 C 66 % 1017,5 hPa 0,0 mm 6,8 km/h (2 Bft) SO 225 0 min 0 W/m 14,9 C 21,5 C 10,8 km/h (2 Bft)
05/10/2012 12:00 21,5 C 65 % 1017,6 hPa 0,0 mm 6,8 km/h (2 Bft) O-SO 247 0 min 0 W/m 14,6 C 21,5 C 7,9 km/h (2 Bft)
05/10/2012 12:10 21,8 C 65 % 1017,8 hPa 0,0 mm 6,8 km/h (2 Bft) SO 225 0 min 0 W/m 14,9 C 21,8 C 13,0 km/h (3 Bft)
05/10/2012 12:20 22,0 C 65 % 1017,9 hPa 0,0 mm 5,4 km/h (2 Bft) O 270 0 min 0 W/m 15,1 C 22,0 C 10,4 km/h (2 Bft)
05/10/2012 12:30 22,3 C 65 % 1017,9 hPa 0,0 mm 4,0 km/h (1 Bft) SO 225 0 min 0 W/m 15,4 C 22,3 C 7,9 km/h (2 Bft)
05/10/2012 12:40 22,2 C 64 % 1017,9 hPa 0,0 mm 11,2 km/h (2 Bft) S 180 0 min 0 W/m 15,1 C 22,2 C 15,1 km/h (3 Bft)
05/10/2012 12:50 22,5 C 64 % 1017,9 hPa 0,0 mm 7,9 km/h (2 Bft) O 270 0 min 0 W/m 15,3 C 22,5 C 10,4 km/h (2 Bft)
05/10/2012 13:00 22,6 C 64 % 1017,8 hPa 0,0 mm 5,4 km/h (2 Bft) S 180 0 min 0 W/m 15,4 C 22,6 C 10,4 km/h (2 Bft)
05/10/2012 13:10 22,9 C 63 % 1017,8 hPa 0,0 mm 4,7 km/h (1 Bft) O-SO 247 0 min 0 W/m 15,5 C 22,9 C 9,0 km/h (2 Bft)
05/10/2012 13:20 23,1 C 62 % 1017,8 hPa 0,0 mm 5,8 km/h (2 Bft) S-SO 202 0 min 0 W/m 15,4 C 23,1 C 7,6 km/h (2 Bft)
05/10/2012 13:30 23,2 C 60 % 1017,9 hPa 0,0 mm 5,8 km/h (2 Bft) S-SO 202 0 min 0 W/m 15,0 C 23,2 C 6,5 km/h (2 Bft)
05/10/2012 13:40 23,3 C 61 % 1018,0 hPa 0,0 mm 3,2 km/h (1 Bft) O-SO 247 0 min 0 W/m 15,3 C 23,3 C 4,7 km/h (1 Bft)
05/10/2012 13:50 23,6 C 60 % 1017,9 hPa 0,0 mm 2,5 km/h (1 Bft) S 180 0 min 0 W/m 15,4 C 23,6 C 4,3 km/h (1 Bft)
05/10/2012 14:00 23,6 C 58 % 1018,0 hPa 0,0 mm 4,0 km/h (1 Bft) S-SO 202 0 min 0 W/m 14,8 C 23,6 C 7,2 km/h (2 Bft)
05/10/2012 14:10 23,6 C 56 % 1017,8 hPa 0,0 mm 4,7 km/h (1 Bft) S-SO 202 0 min 0 W/m 14,3 C 23,6 C 4,7 km/h (1 Bft)
05/10/2012 14:20 23,6 C 57 % 1017,6 hPa 0,0 mm 4,3 km/h (1 Bft) S-SO 202 0 min 0 W/m 14,6 C 23,6 C 4,3 km/h (1 Bft)
05/10/2012 14:30 23,8 C 56 % 1017,5 hPa 0,0 mm 3,6 km/h (1 Bft) SO 225 0 min 0 W/m 14,5 C 23,8 C 4,0 km/h (1 Bft)
05/10/2012 14:40 23,8 C 56 % 1017,4 hPa 0,0 mm 3,2 km/h (1 Bft) O-SO 247 0 min 0 W/m 14,5 C 23,8 C 3,2 km/h (1 Bft)
05/10/2012 14:50 23,9 C 54 % 1017,1 hPa 0,0 mm 6,5 km/h (2 Bft) SO 225 0 min 0 W/m 14,0 C 23,9 C 6,5 km/h (2 Bft)
05/10/2012 15:00 23,9 C 54 % 1016,9 hPa 0,0 mm 1,4 km/h (1 Bft) O-SO 247 0 min 0 W/m 14,0 C 23,9 C 3,2 km/h (1 Bft)
05/10/2012 15:10 24,0 C 54 % 1016,7 hPa 0,0 mm 3,2 km/h (1 Bft) O-SO 247 0 min 0 W/m 14,1 C 24,0 C 6,5 km/h (2 Bft)
05/10/2012 15:20 24,2 C 54 % 1016,6 hPa 0,0 mm 4,3 km/h (1 Bft) SO 225 0 min 0 W/m 14,3 C 24,2 C 4,3 km/h (1 Bft)
05/10/2012 15:30 24,2 C 53 % 1016,4 hPa 0,0 mm 4,0 km/h (1 Bft) SO 225 0 min 0 W/m 14,0 C 24,2 C 9,0 km/h (2 Bft)
05/10/2012 15:40 24,2 C 54 % 1016,3 hPa 0,0 mm 5,0 km/h (1 Bft) S-SO 202 0 min 0 W/m 14,3 C 24,2 C 6,1 km/h (2 Bft)
05/10/2012 15:50 24,2 C 54 % 1016,2 hPa 0,0 mm 2,5 km/h (1 Bft) S 180 0 min 0 W/m 14,3 C 24,2 C 8,3 km/h (2 Bft)
05/10/2012 16:00 24,2 C 55 % 1016,1 hPa 0,0 mm 1,8 km/h (1 Bft) S-SO 202 0 min 0 W/m 14,6 C 24,2 C 4,0 km/h (1 Bft)
05/10/2012 16:10 24,1 C 54 % 1016,0 hPa 0,0 mm 1,1 km/h (1 Bft) SO 225 0 min 0 W/m 14,2 C 24,1 C 4,0 km/h (1 Bft)
05/10/2012 16:20 24,1 C 53 % 1015,9 hPa 0,0 mm 4,0 km/h (1 Bft) S-SO 202 0 min 0 W/m 13,9 C 24,1 C 7,2 km/h (2 Bft)
05/10/2012 16:30 24,1 C 53 % 1015,9 hPa 0,0 mm 4,0 km/h (1 Bft) SO 225 0 min 0 W/m 13,9 C 24,1 C 7,2 km/h (2 Bft)
05/10/2012 16:40 24,1 C 53 % 1015,9 hPa 0,0 mm 4,0 km/h (1 Bft) SO 225 0 min 0 W/m 13,9 C 24,1 C 4,7 km/h (1 Bft)
05/10/2012 16:50 24,1 C 51 % 1015,7 hPa 0,0 mm 3,2 km/h (1 Bft) SO 225 0 min 0 W/m 13,3 C 24,1 C 7,2 km/h (2 Bft)
05/10/2012 17:00 24,1 C 51 % 1015,7 hPa 0,0 mm 1,4 km/h (1 Bft) SO 225 0 min 0 W/m 13,3 C 24,1 C 4,0 km/h (1 Bft)
05/10/2012 17:10 24,0 C 51 % 1015,6 hPa 0,0 mm 1,1 km/h (1 Bft) S-SO 202 0 min 0 W/m 13,2 C 24,0 C 3,6 km/h (1 Bft)
05/10/2012 17:20 24,1 C 51 % 1015,6 hPa 0,0 mm 5,0 km/h (1 Bft) S-SE 157 0 min 0 W/m 13,3 C 24,1 C 9,7 km/h (2 Bft)
05/10/2012 17:30 24,0 C 51 % 1015,5 hPa 0,0 mm 1,4 km/h (1 Bft) SO 225 0 min 0 W/m 13,2 C 24,0 C 4,0 km/h (1 Bft)
05/10/2012 17:40 23,9 C 51 % 1015,4 hPa 0,0 mm 2,2 km/h (1 Bft) SO 225 0 min 0 W/m 13,1 C 23,9 C 2,9 km/h (1 Bft)
05/10/2012 17:50 23,9 C 52 % 1015,3 hPa 0,0 mm 2,2 km/h (1 Bft) S 180 0 min 0 W/m 13,4 C 23,9 C 4,3 km/h (1 Bft)
05/10/2012 18:00 23,8 C 52 % 1015,4 hPa 0,0 mm 3,2 km/h (1 Bft) S 180 0 min 0 W/m 13,3 C 23,8 C 4,0 km/h (1 Bft)
05/10/2012 18:10 23,7 C 53 % 1015,4 hPa 0,0 mm 2,5 km/h (1 Bft) S-SO 202 0 min 0 W/m 13,5 C 23,7 C 2,9 km/h (1 Bft)
05/10/2012 18:20 23,5 C 53 % 1015,4 hPa 0,0 mm 1,4 km/h (1 Bft) S 180 0 min 0 W/m 13,4 C 23,5 C 4,3 km/h (1 Bft)
05/10/2012 18:30 23,4 C 54 % 1015,4 hPa 0,0 mm 3,2 km/h (1 Bft) S-SO 202 0 min 0 W/m 13,6 C 23,4 C 9,4 km/h (2 Bft)
05/10/2012 18:40 23,2 C 54 % 1015,4 hPa 0,0 mm 2,2 km/h (1 Bft) S-SO 202 0 min 0 W/m 13,4 C 23,2 C 6,1 km/h (2 Bft)
05/10/2012 18:50 22,8 C 55 % 1015,5 hPa 0,0 mm 0,4 km/h (0 Bft) S-SO 202 0 min 0 W/m 13,3 C 22,8 C 3,2 km/h (1 Bft)
05/10/2012 19:00 22,2 C 57 % 1015,5 hPa 0,0 mm 1,4 km/h (1 Bft) S-SO 202 0 min 0 W/m 13,3 C 22,2 C 3,2 km/h (1 Bft)
05/10/2012 19:10 21,6 C 58 % 1015,5 hPa 0,0 mm 0,0 km/h (0 Bft) S-SO 202 0 min 0 W/m 13,0 C 21,6 C 0,0 km/h (0 Bft)
05/10/2012 19:20 21,1 C 59 % 1015,6 hPa 0,0 mm 0,0 km/h (0 Bft) S-SO 202 0 min 0 W/m 12,8 C 21,1 C 0,0 km/h (0 Bft)
05/10/2012 19:30 20,5 C 61 % 1015,5 hPa 0,0 mm 0,0 km/h (0 Bft) S-SO 202 0 min 0 W/m 12,7 C 20,5 C 0,0 km/h (0 Bft)
05/10/2012 19:40 19,9 C 62 % 1015,5 hPa 0,0 mm 0,0 km/h (0 Bft) S-SO 202 0 min 0 W/m 12,4 C 19,9 C 0,0 km/h (0 Bft)
05/10/2012 19:50 19,4 C 63 % 1015,4 hPa 0,0 mm 0,0 km/h (0 Bft) S-SO 202 0 min 0 W/m 12,2 C 19,4 C 0,0 km/h (0 Bft)
05/10/2012 20:00 18,9 C 64 % 1015,3 hPa 0,0 mm 0,0 km/h (0 Bft) S 180 0 min 0 W/m 11,9 C 18,9 C 0,0 km/h (0 Bft)
05/10/2012 20:10 18,5 C 65 % 1015,3 hPa 0,0 mm 0,0 km/h (0 Bft) S 180 0 min 0 W/m 11,8 C 18,5 C 0,0 km/h (0 Bft)
05/10/2012 20:20 18,1 C 66 % 1015,3 hPa 0,0 mm 0,0 km/h (0 Bft) S 180 0 min 0 W/m 11,6 C 18,1 C 0,0 km/h (0 Bft)
05/10/2012 20:30 17,6 C 68 % 1015,4 hPa 0,0 mm 0,0 km/h (0 Bft) S 180 0 min 0 W/m 11,6 C 17,6 C 0,0 km/h (0 Bft)
05/10/2012 20:40 17,2 C 69 % 1015,4 hPa 0,0 mm 0,0 km/h (0 Bft) S 180 0 min 0 W/m 11,5 C 17,2 C 0,0 km/h (0 Bft)
05/10/2012 20:50 16,9 C 70 % 1015,4 hPa 0,0 mm 0,0 km/h (0 Bft) S-SE 157 0 min 0 W/m 11,4 C 16,9 C 3,2 km/h (1 Bft)
05/10/2012 21:00 17,1 C 71 % 1015,5 hPa 0,0 mm 0,4 km/h (0 Bft) E-SE 112 0 min 0 W/m 11,8 C 17,1 C 0,4 km/h (0 Bft)
05/10/2012 21:10 16,9 C 73 % 1015,5 hPa 0,0 mm 3,2 km/h (1 Bft) E-SE 112 0 min 0 W/m 12,0 C 16,9 C 3,2 km/h (1 Bft)
05/10/2012 21:20 16,9 C 74 % 1015,6 hPa 0,0 mm 2,2 km/h (1 Bft) E-SE 112 0 min 0 W/m 12,2 C 16,9 C 4,3 km/h (1 Bft)
05/10/2012 21:30 16,9 C 74 % 1015,6 hPa 0,0 mm 0,0 km/h (0 Bft) E-SE 112 0 min 0 W/m 12,2 C 16,9 C 0,0 km/h (0 Bft)
05/10/2012 21:40 16,8 C 74 % 1015,6 hPa 0,0 mm 2,5 km/h (1 Bft) E 90 0 min 0 W/m 12,1 C 16,8 C 6,5 km/h (2 Bft)
05/10/2012 21:50 16,5 C 76 % 1015,5 hPa 0,0 mm 2,9 km/h (1 Bft) E 90 0 min 0 W/m 12,3 C 16,5 C 4,0 km/h (1 Bft)
05/10/2012 22:00 16,3 C 77 % 1015,6 hPa 0,0 mm 0,4 km/h (0 Bft) E 90 0 min 0 W/m 12,3 C 16,3 C 1,4 km/h (1 Bft)
05/10/2012 22:10 15,9 C 78 % 1015,6 hPa 0,0 mm 2,2 km/h (1 Bft) E-SE 112 0 min 0 W/m 12,1 C 15,9 C 4,0 km/h (1 Bft)
05/10/2012 22:20 15,8 C 79 % 1015,5 hPa 0,0 mm 3,2 km/h (1 Bft) E-SE 112 0 min 0 W/m 12,2 C 15,8 C 3,6 km/h (1 Bft)
05/10/2012 22:30 15,6 C 80 % 1015,4 hPa 0,0 mm 3,2 km/h (1 Bft) N 360 0 min 0 W/m 12,2 C 15,6 C 3,2 km/h (1 Bft)
05/10/2012 22:40 15,4 C 80 % 1015,3 hPa 0,0 mm 0,0 km/h (0 Bft) E-SE 112 0 min 0 W/m 12,0 C 15,4 C 0,0 km/h (0 Bft)
05/10/2012 22:50 15,1 C 81 % 1015,3 hPa 0,0 mm 2,5 km/h (1 Bft) E 90 0 min 0 W/m 11,9 C 15,1 C 4,3 km/h (1 Bft)
05/10/2012 23:00 14,9 C 81 % 1015,2 hPa 0,0 mm 0,4 km/h (0 Bft) E 90 0 min 0 W/m 11,7 C 14,9 C 4,0 km/h (1 Bft)
05/10/2012 23:10 14,6 C 81 % 1015,2 hPa 0,0 mm 0,7 km/h (0 Bft) E-NE 67 0 min 0 W/m 11,4 C 14,6 C 3,2 km/h (1 Bft)
05/10/2012 23:20 14,5 C 83 % 1015,2 hPa 0,0 mm 2,2 km/h (1 Bft) E 90 0 min 0 W/m 11,6 C 14,5 C 4,0 km/h (1 Bft)
05/10/2012 23:30 14,5 C 84 % 1015,0 hPa 0,0 mm 3,6 km/h (1 Bft) E-SE 112 0 min 0 W/m 11,8 C 14,5 C 6,8 km/h (2 Bft)
05/10/2012 23:40 14,6 C 84 % 1015,2 hPa 0,0 mm 0,0 km/h (0 Bft) E 90 0 min 0 W/m 11,9 C 14,6 C 0,0 km/h (0 Bft)
05/10/2012 23:50 14,4 C 83 % 1015,3 hPa 0,0 mm 2,2 km/h (1 Bft) E 90 0 min 0 W/m 11,5 C 14,4 C 4,3 km/h (1 Bft)
_ Min-Heure 05:40 17:40 23:30 - 23:40 - - - - 05:40 05:40 23:40
Minimum _ 10,9 C 51 % 1015,0 hPa - 0,0 km/h (0 Bft) - - - - 9,8 C 10,9 C 0,0 km/h (0 Bft)
_ Max-Heure 16:00 07:00 14:00 04:10 12:40 - - 23:50 23:50 13:10 16:00 12:40
Maximum _ 24,2 C 95 % 1018,0 hPa 0,1 mm 11,2 km/h
S (2 Bft)
- - 0 min 0 W/m 15,5 C 24,2 C 15,1 km/h
S (3 Bft)
Moyenne _ 17,3 C 76 % 1016,3 hPa #0,1 mm 2,3 km/h (1 Bft) S-SO - #0 min. 0 W/m 12,5 C 17,3 C 4,0 km/h (1 Bft)
Saint Bonnet de Bellac- Haute Vienne - France